Time;durP1;ratioP1;P1;durP2;ratioP2;P2;SDS_P1;SDS_P2;PMS_P1;PMS_P2;Temp;Humidity;BMP_temperature;BMP_pressure;BME280_temperature;BME280_humidity;BME280_pressure;Samples;Min_cycle;Max_cycle;Signal;HPM_P1;HPM_P2
2024/05/01 00:01:53;;;;;;;11.30;7.83;;;20.60;98.90;;;;;;5410856;26;20241;-81
2024/05/01 00:04:18;;;;;;;10.23;6.97;;;20.60;99.00;;;;;;5444871;26;20279;-79
2024/05/01 00:06:44;;;;;;;14.63;7.00;;;20.50;99.00;;;;;;5410461;26;20860;-82
2024/05/01 00:09:10;;;;;;;10.00;6.73;;;20.50;99.00;;;;;;5445952;26;20387;-80
2024/05/01 00:11:35;;;;;;;9.57;6.13;;;20.50;99.00;;;;;;5423284;26;20253;-81
2024/05/01 00:14:01;;;;;;;11.77;5.90;;;20.50;99.10;;;;;;5409291;26;20583;-82
2024/05/01 00:16:26;;;;;;;14.47;6.50;;;20.50;99.20;;;;;;5446234;26;20340;-81
2024/05/01 00:18:52;;;;;;;9.97;6.57;;;20.50;99.30;;;;;;5444766;26;20286;-81
2024/05/01 00:21:17;;;;;;;11.40;6.90;;;20.30;99.30;;;;;;5445570;26;20278;-81
2024/05/01 00:23:43;;;;;;;11.37;6.27;;;20.30;99.40;;;;;;5410563;26;20244;-80
2024/05/01 00:26:09;;;;;;;15.33;7.47;;;20.30;99.50;;;;;;5414685;26;20286;-81
2024/05/01 00:28:35;;;;;;;9.07;6.97;;;20.20;99.80;;;;;;5446501;26;20527;-81
2024/05/01 00:31:00;;;;;;;15.40;8.50;;;20.10;99.80;;;;;;5411536;26;20292;-80
2024/05/01 00:33:26;;;;;;;9.23;6.40;;;20.10;99.80;;;;;;5445628;26;20288;-80
2024/05/01 00:35:51;;;;;;;11.20;7.30;;;20.10;99.90;;;;;;5447262;26;20271;-81
2024/05/01 00:38:17;;;;;;;15.40;8.00;;;20.00;99.90;;;;;;5447996;26;20248;-80
2024/05/01 00:40:47;;;;;;;14.93;9.13;;;20.00;99.90;;;;;;5435200;26;20240;-79
2024/05/01 00:43:13;;;;;;;18.00;9.90;;;20.00;99.90;;;;;;5412331;26;20281;-81
2024/05/01 00:45:38;;;;;;;13.83;8.73;;;20.00;99.90;;;;;;5443712;26;20747;-81
2024/05/01 00:48:04;;;;;;;20.93;9.23;;;20.00;99.90;;;;;;5443257;26;20244;-80
2024/05/01 00:50:30;;;;;;;12.80;8.63;;;20.00;99.90;;;;;;5409368;26;20621;-81
2024/05/01 00:52:59;;;;;;;16.67;9.27;;;19.90;99.90;;;;;;5444870;26;20366;-80
2024/05/01 00:55:28;;;;;;;15.40;9.37;;;19.90;99.90;;;;;;5446389;26;20358;-80
2024/05/01 00:57:56;;;;;;;13.27;9.23;;;19.80;99.90;;;;;;5446253;26;20236;-80
2024/05/01 01:00:22;;;;;;;16.30;8.80;;;19.90;99.90;;;;;;5446949;26;20236;-80
2024/05/01 01:02:49;;;;;;;16.53;8.57;;;19.80;99.90;;;;;;5444196;26;20686;-81
2024/05/01 01:05:15;;;;;;;12.63;9.07;;;19.70;99.90;;;;;;5447546;26;20240;-80
2024/05/01 01:07:43;;;;;;;16.53;9.13;;;19.70;99.90;;;;;;5445171;26;20286;-81
2024/05/01 01:10:08;;;;;;;13.93;8.90;;;19.70;99.90;;;;;;5407687;26;20316;-80
2024/05/01 01:12:34;;;;;;;12.37;9.20;;;19.70;99.90;;;;;;5445966;26;20244;-82
2024/05/01 01:14:59;;;;;;;13.60;9.97;;;19.70;99.90;;;;;;5446248;26;20236;-81
2024/05/01 01:17:25;;;;;;;15.07;9.50;;;19.70;99.90;;;;;;5446004;26;20643;-81
2024/05/01 01:19:51;;;;;;;16.83;9.30;;;19.60;99.90;;;;;;5409069;26;20242;-81
2024/05/01 01:22:17;;;;;;;21.67;11.30;;;19.60;99.90;;;;;;5446440;26;20886;-81
2024/05/01 01:24:43;;;;;;;16.13;9.30;;;19.60;99.90;;;;;;5446513;26;20236;-81
2024/05/01 01:27:12;;;;;;;14.13;9.27;;;19.50;99.90;;;;;;5446039;26;20244;-82
2024/05/01 01:29:37;;;;;;;15.40;9.90;;;19.60;99.90;;;;;;5444219;26;20337;-81
2024/05/01 01:32:04;;;;;;;13.73;9.50;;;19.40;99.90;;;;;;5408816;26;20653;-81
2024/05/01 01:34:29;;;;;;;19.07;9.40;;;19.40;99.90;;;;;;5442880;26;20313;-81
2024/05/01 01:36:55;;;;;;;16.87;9.97;;;19.30;99.90;;;;;;5445837;26;20240;-80
2024/05/01 01:39:21;;;;;;;19.53;10.50;;;19.20;99.90;;;;;;5444277;26;20240;-80
2024/05/01 01:41:46;;;;;;;19.27;10.50;;;19.20;99.90;;;;;;5445577;26;20240;-81
2024/05/01 01:44:12;;;;;;;15.83;9.47;;;19.20;99.90;;;;;;5422850;26;20257;-81
2024/05/01 01:46:37;;;;;;;14.47;10.30;;;19.20;99.90;;;;;;5442963;26;20248;-82
2024/05/01 01:49:04;;;;;;;14.87;9.63;;;19.10;99.90;;;;;;5407824;26;20291;-81
2024/05/01 01:51:30;;;;;;;14.87;10.50;;;19.20;99.90;;;;;;5448161;26;20242;-82
2024/05/01 01:53:57;;;;;;;20.37;10.37;;;19.10;99.90;;;;;;5447101;26;20240;-82
2024/05/01 01:56:23;;;;;;;15.30;9.97;;;19.10;99.90;;;;;;5448651;26;20307;-81
2024/05/01 01:58:48;;;;;;;20.17;10.60;;;19.10;99.90;;;;;;5448826;26;20279;-82
2024/05/01 02:01:14;;;;;;;18.30;10.73;;;19.00;99.90;;;;;;5449323;26;20236;-81
2024/05/01 02:03:49;;;;;;;16.47;10.67;;;19.00;99.90;;;;;;5449320;26;20360;-81
2024/05/01 02:06:15;;;;;;;16.00;10.87;;;18.90;99.90;;;;;;5412960;26;20263;-82
2024/05/01 02:08:41;;;;;;;20.03;10.60;;;18.90;99.90;;;;;;5446341;26;20600;-82
2024/05/01 02:11:06;;;;;;;15.10;11.37;;;18.90;99.90;;;;;;5446980;26;20496;-82
2024/05/01 02:13:32;;;;;;;20.23;10.93;;;18.80;99.90;;;;;;5447285;26;20263;-81
2024/05/01 02:15:58;;;;;;;17.00;12.00;;;18.70;99.90;;;;;;5411992;26;20745;-81
2024/05/01 02:18:24;;;;;;;18.17;11.23;;;18.60;99.90;;;;;;5447174;26;20301;-81
2024/05/01 02:20:49;;;;;;;15.00;11.83;;;18.60;99.90;;;;;;5413266;26;20697;-82
2024/05/01 02:23:16;;;;;;;20.40;11.73;;;18.60;99.90;;;;;;5412321;26;20253;-82
2024/05/01 02:25:43;;;;;;;15.77;12.27;;;18.60;99.90;;;;;;5451001;26;20963;-80
2024/05/01 02:28:09;;;;;;;12.67;11.07;;;18.60;99.90;;;;;;5412179;26;20270;-81
2024/05/01 02:30:35;;;;;;;18.00;11.13;;;18.60;99.90;;;;;;5448348;26;20274;-81
2024/05/01 02:33:00;;;;;;;16.13;11.97;;;18.60;99.90;;;;;;5448350;26;20239;-82
2024/05/01 02:35:26;;;;;;;19.27;11.63;;;18.60;99.90;;;;;;5448585;26;20243;-81
2024/05/01 02:37:51;;;;;;;23.10;11.87;;;18.50;99.90;;;;;;5412106;26;20306;-82
2024/05/01 02:40:17;;;;;;;15.87;11.50;;;18.50;99.90;;;;;;5410952;26;20240;-81
2024/05/01 02:42:42;;;;;;;17.03;11.80;;;18.50;99.90;;;;;;5445721;26;20274;-81
2024/05/01 02:45:08;;;;;;;19.07;11.43;;;18.40;99.90;;;;;;5430615;26;20294;-81
2024/05/01 02:47:34;;;;;;;15.43;11.67;;;18.40;99.90;;;;;;5410689;26;20295;-81
2024/05/01 02:49:59;;;;;;;21.00;11.63;;;18.30;99.90;;;;;;5412013;26;20272;-80
2024/05/01 02:52:25;;;;;;;20.33;13.13;;;18.30;99.90;;;;;;5412638;26;20895;-82
2024/05/01 02:54:50;;;;;;;15.30;12.30;;;18.30;99.90;;;;;;5447467;26;20798;-82
2024/05/01 02:57:16;;;;;;;16.80;12.50;;;18.20;99.90;;;;;;5446606;26;20309;-80
2024/05/01 02:59:42;;;;;;;19.13;13.00;;;18.30;99.90;;;;;;5421665;26;20243;-80
2024/05/01 03:02:07;;;;;;;20.17;13.10;;;18.20;99.90;;;;;;5445595;26;20224;-80
2024/05/01 03:04:33;;;;;;;18.27;12.83;;;18.20;99.90;;;;;;5447082;26;20301;-81
2024/05/01 03:06:58;;;;;;;18.67;13.03;;;18.20;99.90;;;;;;5445932;26;20255;-81
2024/05/01 03:09:27;;;;;;;20.43;13.13;;;18.10;99.90;;;;;;5443492;26;20293;-81
2024/05/01 03:11:53;;;;;;;20.77;13.53;;;18.10;99.90;;;;;;5421593;26;20294;-80
2024/05/01 03:14:18;;;;;;;21.17;14.10;;;18.10;99.90;;;;;;5446224;26;20236;-81
2024/05/01 03:16:44;;;;;;;24.67;14.13;;;18.10;99.90;;;;;;5411061;26;20241;-80
2024/05/01 03:19:09;;;;;;;17.07;13.07;;;18.00;99.90;;;;;;5435870;26;20723;-80
2024/05/01 03:21:40;;;;;;;21.07;13.87;;;18.00;99.90;;;;;;5445779;26;20620;-80
2024/05/01 03:24:06;;;;;;;20.00;12.93;;;18.00;99.90;;;;;;5446589;26;20242;-80
2024/05/01 03:26:32;;;;;;;20.00;13.27;;;18.00;99.90;;;;;;5446895;26;20574;-80
2024/05/01 03:28:57;;;;;;;19.53;13.03;;;18.00;99.90;;;;;;5444856;26;20287;-81
2024/05/01 03:31:23;;;;;;;17.57;13.70;;;18.00;99.90;;;;;;5409687;26;20370;-80
2024/05/01 03:33:49;;;;;;;17.17;12.17;;;17.90;99.90;;;;;;5443352;26;20242;-80
2024/05/01 03:36:14;;;;;;;19.43;12.77;;;18.00;99.90;;;;;;5410475;26;20240;-80
2024/05/01 03:38:40;;;;;;;21.90;13.17;;;18.00;99.90;;;;;;5441722;26;20250;-81
2024/05/01 03:41:06;;;;;;;20.87;12.47;;;18.00;99.90;;;;;;5446881;26;20342;-80
2024/05/01 03:43:31;;;;;;;20.70;13.63;;;17.90;99.90;;;;;;5433697;26;20251;-81
2024/05/01 03:45:57;;;;;;;20.83;13.40;;;17.90;99.90;;;;;;5410050;26;20315;-82
2024/05/01 03:48:23;;;;;;;16.27;12.80;;;17.90;99.90;;;;;;5427610;26;20364;-80
2024/05/01 03:50:48;;;;;;;16.67;12.20;;;17.80;99.90;;;;;;5443113;26;20246;-81
2024/05/01 03:53:14;;;;;;;18.67;13.20;;;17.80;99.90;;;;;;5410357;26;20247;-80
2024/05/01 03:55:39;;;;;;;21.13;13.53;;;17.70;99.90;;;;;;5419016;26;20248;-80
2024/05/01 03:58:05;;;;;;;18.57;12.83;;;17.70;99.90;;;;;;5443392;26;20242;-81
2024/05/01 04:00:30;;;;;;;24.87;13.83;;;17.70;99.90;;;;;;5445993;26;20774;-80
2024/05/01 04:02:59;;;;;;;18.27;13.53;;;17.70;99.90;;;;;;5448965;26;20356;-80
2024/05/01 04:05:25;;;;;;;18.53;12.47;;;17.70;99.90;;;;;;5447067;26;20239;-81
2024/05/01 04:07:52;;;;;;;19.63;12.50;;;17.60;99.90;;;;;;5445744;26;20850;-80
2024/05/01 04:10:18;;;;;;;18.23;12.70;;;17.50;99.90;;;;;;5444859;26;20238;-81
2024/05/01 04:12:44;;;;;;;15.13;12.37;;;17.50;99.90;;;;;;5445372;26;20612;-81
2024/05/01 04:15:09;;;;;;;18.80;12.70;;;17.50;99.90;;;;;;5444035;26;20589;-80
2024/05/01 04:17:35;;;;;;;19.63;13.03;;;17.60;99.90;;;;;;5408495;26;20789;-81
2024/05/01 04:20:01;;;;;;;19.53;12.40;;;17.60;99.90;;;;;;5443062;26;20986;-82
2024/05/01 04:22:26;;;;;;;17.80;12.70;;;17.50;99.90;;;;;;5409684;26;20244;-80
2024/05/01 04:24:52;;;;;;;13.30;11.80;;;17.50;99.90;;;;;;5443302;26;20251;-80
2024/05/01 04:27:18;;;;;;;19.50;12.33;;;17.50;99.90;;;;;;5446156;26;20317;-82
2024/05/01 04:29:43;;;;;;;20.27;12.20;;;17.50;99.90;;;;;;5443889;26;20236;-83
2024/05/01 04:32:09;;;;;;;21.70;12.27;;;17.60;99.90;;;;;;5446013;26;20331;-82
2024/05/01 04:34:35;;;;;;;15.70;12.20;;;17.50;99.90;;;;;;5444493;26;20335;-81
2024/05/01 04:37:00;;;;;;;16.00;12.70;;;17.50;99.90;;;;;;5446705;26;20238;-80
2024/05/01 04:39:26;;;;;;;15.03;12.77;;;17.50;99.90;;;;;;5407664;26;20656;-80
2024/05/01 04:41:52;;;;;;;16.03;12.23;;;17.50;99.90;;;;;;5409701;26;20225;-80
2024/05/01 04:44:17;;;;;;;18.47;12.93;;;17.40;99.90;;;;;;5421500;26;20258;-80
2024/05/01 04:46:43;;;;;;;19.13;12.37;;;17.40;99.90;;;;;;5437019;26;20251;-81
2024/05/01 04:49:08;;;;;;;16.27;12.67;;;17.30;99.90;;;;;;5443050;26;20615;-81
2024/05/01 04:51:34;;;;;;;16.63;12.33;;;17.30;99.90;;;;;;5445521;26;20238;-80
2024/05/01 04:53:59;;;;;;;20.13;12.43;;;17.30;99.90;;;;;;5445448;26;20254;-80
2024/05/01 04:56:25;;;;;;;20.20;12.43;;;17.40;99.90;;;;;;5444177;26;20257;-80
2024/05/01 04:58:50;;;;;;;16.60;13.10;;;17.40;99.90;;;;;;5444627;26;20284;-81
2024/05/01 05:01:16;;;;;;;21.87;14.17;;;17.50;99.90;;;;;;5444759;26;20561;-80
2024/05/01 05:03:41;;;;;;;20.20;12.90;;;17.50;99.90;;;;;;5444717;26;20272;-80
2024/05/01 05:06:07;;;;;;;21.67;13.53;;;17.50;99.90;;;;;;5444867;26;20239;-80
2024/05/01 05:08:33;;;;;;;22.07;12.80;;;17.50;99.90;;;;;;5408608;26;20247;-80
2024/05/01 05:10:58;;;;;;;17.33;12.80;;;17.50;99.90;;;;;;5440416;26;20350;-80
2024/05/01 05:13:24;;;;;;;16.60;12.67;;;17.50;99.90;;;;;;5443388;26;20757;-80
2024/05/01 05:15:49;;;;;;;19.97;13.03;;;17.60;99.90;;;;;;5407962;26;20299;-80
2024/05/01 05:18:15;;;;;;;20.17;12.63;;;17.50;99.90;;;;;;5440804;26;20247;-79
2024/05/01 05:20:41;;;;;;;18.70;13.00;;;17.50;99.90;;;;;;5408545;26;20270;-81
2024/05/01 05:23:07;;;;;;;19.10;13.00;;;17.50;99.90;;;;;;5443527;26;20658;-81
2024/05/01 05:25:32;;;;;;;15.47;11.93;;;17.50;99.90;;;;;;5445680;26;20750;-81
2024/05/01 05:27:58;;;;;;;21.20;12.40;;;17.40;99.90;;;;;;5438989;26;20247;-81
2024/05/01 05:30:23;;;;;;;16.10;12.10;;;17.40;99.90;;;;;;5429874;26;20247;-81
2024/05/01 05:32:49;;;;;;;20.33;13.77;;;17.30;99.90;;;;;;5445322;26;20686;-80
2024/05/01 05:35:14;;;;;;;25.73;12.60;;;17.20;99.90;;;;;;5428616;26;20321;-81
2024/05/01 05:37:40;;;;;;;20.87;13.03;;;17.20;99.90;;;;;;5407148;26;20256;-81
2024/05/01 05:40:06;;;;;;;16.47;12.70;;;17.20;99.90;;;;;;5435271;26;20343;-79
2024/05/01 05:42:32;;;;;;;18.33;12.57;;;17.20;99.90;;;;;;5407845;26;20638;-83
2024/05/01 05:44:57;;;;;;;23.03;13.50;;;17.30;99.90;;;;;;5439663;26;20351;-81
2024/05/01 05:47:23;;;;;;;20.57;12.57;;;17.40;99.90;;;;;;5449170;26;20233;-81
2024/05/01 05:49:48;;;;;;;18.23;12.43;;;17.50;99.90;;;;;;5441242;26;20252;-81
2024/05/01 05:52:14;;;;;;;17.93;12.90;;;17.50;99.90;;;;;;5444486;26;20499;-81
2024/05/01 05:54:40;;;;;;;17.53;12.97;;;17.60;99.90;;;;;;5436461;26;20286;-80
2024/05/01 05:57:05;;;;;;;16.10;13.97;;;17.60;99.90;;;;;;5408843;26;20311;-81
2024/05/01 05:59:31;;;;;;;17.83;13.67;;;17.70;99.90;;;;;;5443460;26;20242;-82
2024/05/01 06:01:56;;;;;;;22.57;14.27;;;17.70;99.90;;;;;;5444572;26;20241;-82
2024/05/01 06:04:23;;;;;;;21.93;14.63;;;17.70;99.90;;;;;;5441066;26;20240;-79
2024/05/01 06:06:48;;;;;;;21.03;13.40;;;17.80;99.90;;;;;;5408754;26;20226;-79
2024/05/01 06:09:14;;;;;;;18.40;13.57;;;17.80;99.90;;;;;;5406135;26;20341;-81
2024/05/01 06:11:40;;;;;;;17.50;15.00;;;17.80;99.90;;;;;;5421982;26;20363;-82
2024/05/01 06:14:05;;;;;;;17.20;14.00;;;17.90;99.90;;;;;;5442125;26;20359;-81
2024/05/01 06:16:31;;;;;;;19.90;14.03;;;17.90;99.90;;;;;;5444687;26;20662;-80
2024/05/01 06:18:56;;;;;;;21.97;14.53;;;17.90;99.90;;;;;;5442818;26;20244;-80
2024/05/01 06:21:22;;;;;;;22.20;14.83;;;18.10;99.90;;;;;;5444569;26;20317;-81
2024/05/01 06:23:47;;;;;;;19.27;14.80;;;18.20;99.90;;;;;;5444413;26;20487;-79
2024/05/01 06:26:13;;;;;;;18.10;13.97;;;18.20;99.90;;;;;;5443165;26;20353;-80
2024/05/01 06:28:38;;;;;;;23.80;14.70;;;18.30;99.90;;;;;;5444611;26;20352;-81
2024/05/01 06:31:05;;;;;;;19.07;14.57;;;18.30;99.90;;;;;;5442406;26;20263;-82
2024/05/01 06:33:30;;;;;;;22.37;14.43;;;18.30;99.90;;;;;;5444474;26;20350;-81
2024/05/01 06:35:56;;;;;;;20.60;14.13;;;18.30;99.90;;;;;;5446867;26;20258;-83
2024/05/01 06:38:22;;;;;;;18.03;14.47;;;18.30;99.90;;;;;;5413332;26;20607;-82
2024/05/01 06:40:47;;;;;;;23.33;14.23;;;18.30;99.90;;;;;;5409077;26;20279;-81
2024/05/01 06:43:13;;;;;;;18.93;15.37;;;18.30;99.90;;;;;;5446705;26;20335;-82
2024/05/01 06:45:38;;;;;;;19.33;15.50;;;18.30;99.90;;;;;;5449402;26;20328;-81
2024/05/01 06:48:04;;;;;;;15.43;12.33;;;18.40;99.90;;;;;;5445095;26;20340;-82
2024/05/01 06:50:30;;;;;;;24.73;13.80;;;18.30;99.90;;;;;;5410799;26;20256;-80
2024/05/01 06:52:55;;;;;;;16.50;12.37;;;18.20;99.90;;;;;;5445955;26;20290;-82
2024/05/01 06:55:21;;;;;;;23.13;12.77;;;18.20;99.90;;;;;;5447146;26;20283;-79
2024/05/01 06:57:46;;;;;;;18.90;12.83;;;18.10;99.90;;;;;;5445660;26;20246;-80
2024/05/01 07:00:12;;;;;;;19.20;11.53;;;18.00;99.90;;;;;;5447367;26;20357;-80
2024/05/01 07:02:38;;;;;;;17.03;10.77;;;18.10;99.90;;;;;;5444710;26;20247;-82
2024/05/01 07:05:04;;;;;;;15.67;10.90;;;18.20;99.90;;;;;;5411367;26;20252;-80
2024/05/01 07:07:29;;;;;;;15.40;11.10;;;18.20;99.90;;;;;;5444244;26;20291;-81
2024/05/01 07:09:55;;;;;;;17.63;10.90;;;18.40;99.90;;;;;;5409207;26;20275;-81
2024/05/01 07:12:20;;;;;;;19.90;12.33;;;18.50;99.90;;;;;;5445691;26;20244;-81
2024/05/01 07:14:46;;;;;;;16.63;11.30;;;18.50;99.90;;;;;;5437366;26;20362;-81
2024/05/01 07:17:11;;;;;;;17.27;11.60;;;18.70;99.90;;;;;;5411080;26;20225;-81
2024/05/01 07:19:37;;;;;;;18.53;11.20;;;18.70;99.90;;;;;;5406971;26;20278;-81
2024/05/01 07:22:03;;;;;;;18.17;11.60;;;18.80;99.90;;;;;;5445070;26;20244;-79
2024/05/01 07:24:28;;;;;;;14.83;11.27;;;18.80;99.90;;;;;;5409838;26;20249;-83
2024/05/01 07:26:54;;;;;;;20.37;11.00;;;18.90;99.90;;;;;;5444359;26;20299;-82
2024/05/01 07:29:19;;;;;;;16.63;10.80;;;19.10;99.90;;;;;;5411355;26;20257;-80
2024/05/01 07:31:45;;;;;;;22.60;11.00;;;19.20;99.90;;;;;;5413732;26;20229;-82
2024/05/01 07:34:11;;;;;;;15.03;11.43;;;19.30;99.90;;;;;;5445206;26;20319;-81
2024/05/01 07:36:36;;;;;;;24.63;11.60;;;19.30;99.90;;;;;;5446798;26;20536;-81
2024/05/01 07:39:03;;;;;;;22.63;11.97;;;19.40;99.90;;;;;;5443630;26;20244;-81
2024/05/01 07:41:28;;;;;;;19.40;11.43;;;19.30;99.90;;;;;;5446391;26;20236;-81
2024/05/01 07:43:54;;;;;;;23.27;11.50;;;19.50;99.90;;;;;;5445055;26;20299;-81
2024/05/01 07:46:19;;;;;;;20.03;10.17;;;19.50;99.90;;;;;;5445293;26;20276;-80
2024/05/01 07:48:45;;;;;;;15.47;10.87;;;19.70;99.90;;;;;;5432096;26;20779;-80
2024/05/01 07:51:11;;;;;;;16.57;11.33;;;19.80;99.90;;;;;;5445944;26;21248;-80
2024/05/01 07:53:36;;;;;;;17.93;11.23;;;19.90;99.90;;;;;;5449443;26;20659;-80
2024/05/01 07:56:02;;;;;;;18.97;12.00;;;20.00;99.90;;;;;;5440738;26;20417;-80
2024/05/01 07:58:27;;;;;;;19.87;13.10;;;20.00;99.90;;;;;;5410801;26;20590;-81
2024/05/01 08:00:53;;;;;;;16.90;12.90;;;20.10;99.90;;;;;;5413575;26;20261;-80
2024/05/01 08:03:19;;;;;;;20.30;12.73;;;20.20;99.90;;;;;;5457625;26;20920;-82
2024/05/01 08:05:44;;;;;;;21.60;13.50;;;20.30;99.90;;;;;;5450818;26;20351;-83
2024/05/01 08:08:10;;;;;;;20.60;13.37;;;20.30;99.90;;;;;;5451463;26;20240;-81
2024/05/01 08:10:36;;;;;;;20.77;13.83;;;20.40;99.90;;;;;;5446697;26;20280;-81
2024/05/01 08:13:01;;;;;;;21.03;14.03;;;20.40;99.90;;;;;;5448158;26;20270;-80
2024/05/01 08:15:27;;;;;;;26.83;14.07;;;20.40;99.90;;;;;;5446279;26;20244;-80
2024/05/01 08:17:52;;;;;;;17.50;13.67;;;20.30;99.90;;;;;;5410469;26;20326;-80
2024/05/01 08:20:18;;;;;;;21.30;13.30;;;20.20;99.90;;;;;;5445897;26;20318;-81
2024/05/01 08:22:44;;;;;;;21.17;13.97;;;20.30;99.90;;;;;;5414993;26;20676;-80
2024/05/01 08:25:09;;;;;;;22.63;14.33;;;20.40;99.90;;;;;;5451684;26;20240;-82
2024/05/01 08:27:37;;;;;;;20.47;14.73;;;20.50;99.90;;;;;;5413472;26;20748;-80
2024/05/01 08:30:07;;;;;;;21.33;15.60;;;20.70;99.90;;;;;;5447188;26;20320;-80
2024/05/01 08:32:32;;;;;;;23.13;16.50;;;20.80;99.90;;;;;;5410863;26;20249;-81
2024/05/01 08:34:58;;;;;;;22.47;14.50;;;20.90;99.90;;;;;;5447141;26;20337;-80
2024/05/01 08:37:23;;;;;;;22.50;13.73;;;20.80;99.90;;;;;;5448041;26;20232;-80
2024/05/01 08:39:50;;;;;;;24.83;14.83;;;20.90;99.90;;;;;;5445087;26;20244;-81
2024/05/01 08:42:16;;;;;;;18.23;13.97;;;20.90;99.90;;;;;;5412094;26;20256;-80
2024/05/01 08:44:42;;;;;;;27.40;14.40;;;20.90;99.90;;;;;;5442073;26;20299;-81
2024/05/01 08:47:15;;;;;;;20.50;14.37;;;21.10;99.90;;;;;;5412515;26;20249;-81
2024/05/01 08:49:41;;;;;;;22.97;15.17;;;21.10;99.90;;;;;;5446062;26;20293;-81
2024/05/01 08:52:08;;;;;;;25.93;15.83;;;21.20;99.90;;;;;;5411895;26;20245;-80
2024/05/01 08:54:34;;;;;;;21.10;14.60;;;21.20;99.90;;;;;;5446705;26;20388;-81
2024/05/01 08:57:01;;;;;;;17.07;14.70;;;21.30;99.90;;;;;;5449232;26;20248;-81
2024/05/01 08:59:28;;;;;;;24.43;14.27;;;21.40;99.90;;;;;;5450569;26;20322;-80
2024/05/01 09:01:54;;;;;;;21.20;14.77;;;21.50;99.90;;;;;;5447320;26;20286;-81
2024/05/01 09:04:19;;;;;;;19.93;14.43;;;21.50;99.90;;;;;;5444172;26;20244;-82
2024/05/01 09:06:52;;;;;;;18.33;14.73;;;21.60;99.90;;;;;;5445396;26;20244;-79
2024/05/01 09:09:17;;;;;;;20.67;14.70;;;21.60;99.90;;;;;;5446015;26;20236;-80
2024/05/01 09:11:44;;;;;;;20.73;14.67;;;21.70;99.70;;;;;;5446636;26;20356;-80
2024/05/01 09:14:10;;;;;;;24.17;14.63;;;21.80;99.50;;;;;;5411026;26;20253;-79
2024/05/01 09:16:35;;;;;;;23.63;15.10;;;21.80;99.60;;;;;;5414489;26;20256;-81
2024/05/01 09:19:01;;;;;;;23.90;15.33;;;21.80;99.40;;;;;;5446549;26;20307;-82
2024/05/01 09:21:37;;;;;;;27.13;16.63;;;21.80;99.30;;;;;;5448713;26;20236;-81
2024/05/01 09:24:05;;;;;;;17.40;15.30;;;21.80;99.20;;;;;;5448357;26;20244;-80
2024/05/01 09:26:31;;;;;;;23.13;15.73;;;21.80;99.10;;;;;;5411966;26;20275;-82
2024/05/01 09:28:57;;;;;;;20.37;15.73;;;22.00;99.10;;;;;;5451473;26;20578;-80
2024/05/01 09:31:22;;;;;;;24.57;15.27;;;22.10;98.90;;;;;;5453489;26;20325;-82
2024/05/01 09:33:48;;;;;;;25.87;14.83;;;22.10;98.80;;;;;;5448276;26;20619;-80
2024/05/01 09:36:14;;;;;;;21.10;14.27;;;22.10;98.80;;;;;;5412472;26;20241;-80
2024/05/01 09:38:44;;;;;;;20.73;14.27;;;22.10;99.30;;;;;;5443439;26;20243;-81
2024/05/01 09:41:13;;;;;;;20.47;14.80;;;22.20;99.20;;;;;;5448012;26;20236;-80
2024/05/01 09:43:48;;;;;;;18.97;14.37;;;22.30;99.10;;;;;;5413803;26;20240;-81
2024/05/01 09:46:15;;;;;;;20.67;14.83;;;22.40;99.00;;;;;;5444872;26;20239;-81
2024/05/01 09:48:41;;;;;;;29.93;24.27;;;22.40;99.40;;;;;;5427438;26;20239;-83
2024/05/01 09:51:08;;;;;;;23.87;18.87;;;22.50;99.30;;;;;;5410804;26;20245;-83
2024/05/01 09:53:36;;;;;;;18.63;15.17;;;22.60;99.20;;;;;;5445400;26;20708;-80
2024/05/01 09:56:03;;;;;;;20.43;15.33;;;22.70;98.90;;;;;;5448713;26;20244;-80
2024/05/01 09:58:32;;;;;;;23.47;14.63;;;22.70;98.50;;;;;;5413061;26;20249;-81
2024/05/01 10:01:00;;;;;;;23.13;16.43;;;22.70;98.80;;;;;;5446753;26;20275;-80
2024/05/01 10:03:28;;;;;;;19.40;15.67;;;22.90;98.50;;;;;;5443786;26;20344;-81
2024/05/01 10:05:55;;;;;;;21.47;14.93;;;22.80;98.30;;;;;;5409607;26;20249;-81
2024/05/01 10:08:21;;;;;;;18.07;16.17;;;22.70;98.60;;;;;;5446590;26;20335;-81
2024/05/01 10:10:46;;;;;;;21.97;15.63;;;22.70;98.10;;;;;;5439080;26;20252;-81
2024/05/01 10:13:16;;;;;;;17.87;15.53;;;22.80;98.00;;;;;;5448889;26;20251;-80
2024/05/01 10:15:43;;;;;;;17.37;14.00;;;22.50;98.20;;;;;;5448974;26;20244;-80
2024/05/01 10:18:12;;;;;;;21.53;15.53;;;22.40;98.70;;;;;;5453643;26;20275;-81
2024/05/01 10:20:48;;;;;;;21.23;15.23;;;22.40;98.60;;;;;;5451482;26;20236;-80
2024/05/01 10:23:33;;;;;;;21.70;15.27;;;22.60;98.30;;;;;;5448156;26;20251;-81
2024/05/01 10:26:06;;;;;;;22.90;14.63;;;22.80;98.60;;;;;;5416002;26;20228;-81
2024/05/01 10:28:35;;;;;;;24.03;14.97;;;22.90;99.70;;;;;;5413829;26;20295;-80
2024/05/01 10:31:08;;;;;;;18.73;14.33;;;22.90;98.40;;;;;;5452102;26;20695;-83
2024/05/01 10:33:38;;;;;;;17.73;13.73;;;22.80;98.40;;;;;;5452232;26;20236;-82
2024/05/01 10:36:11;;;;;;;20.83;14.50;;;22.80;98.60;;;;;;5448014;26;20239;-82
2024/05/01 10:38:41;;;;;;;22.03;14.33;;;22.90;98.80;;;;;;5411922;26;20712;-82
2024/05/01 10:41:33;;;;;;;22.43;16.00;;;22.90;98.60;;;;;;5413009;26;20237;-80
2024/05/01 10:44:03;;;;;;;19.77;14.73;;;23.00;98.70;;;;;;5423674;26;20619;-82
2024/05/01 10:46:32;;;;;;;20.33;15.77;;;22.90;98.90;;;;;;5449777;26;20703;-82
2024/05/01 10:48:58;;;;;;;20.00;16.83;;;23.10;98.80;;;;;;5424143;26;20241;-80
2024/05/01 10:51:24;;;;;;;19.87;15.70;;;23.20;98.90;;;;;;5414266;26;20253;-82
2024/05/01 10:53:50;;;;;;;23.67;16.00;;;23.20;98.80;;;;;;5446666;26;21123;-80
2024/05/01 10:56:17;;;;;;;17.33;14.33;;;23.30;98.70;;;;;;5448439;26;20320;-82
2024/05/01 10:58:44;;;;;;;19.23;14.07;;;23.40;98.60;;;;;;5446374;26;20240;-82
2024/05/01 11:01:10;;;;;;;22.33;14.70;;;23.40;98.10;;;;;;5448392;26;20355;-81
2024/05/01 11:03:36;;;;;;;20.37;14.40;;;23.50;98.20;;;;;;5447936;26;20348;-82
2024/05/01 11:06:02;;;;;;;16.87;14.87;;;23.50;98.40;;;;;;5448075;26;20561;-83
2024/05/01 11:08:28;;;;;;;18.37;12.33;;;23.50;98.30;;;;;;5448783;26;20244;-82
2024/05/01 11:10:55;;;;;;;19.57;12.57;;;23.50;98.30;;;;;;5464731;26;20248;-83
2024/05/01 11:13:31;;;;;;;23.67;14.43;;;23.50;98.30;;;;;;5449468;26;20582;-82
2024/05/01 11:16:03;;;;;;;17.23;14.27;;;23.50;98.30;;;;;;5441343;26;20243;-80
2024/05/01 11:18:29;;;;;;;18.93;13.30;;;23.50;98.20;;;;;;5424071;26;20244;-79
2024/05/01 11:20:57;;;;;;;23.70;13.73;;;23.70;98.20;;;;;;5410499;26;20245;-80
2024/05/01 11:23:25;;;;;;;15.73;12.77;;;23.70;98.30;;;;;;5444840;26;20247;-81
2024/05/01 11:25:52;;;;;;;17.67;13.63;;;23.70;98.50;;;;;;5447859;26;20244;-80
2024/05/01 11:28:18;;;;;;;16.47;13.73;;;23.80;98.40;;;;;;5446269;26;20244;-81
2024/05/01 11:30:43;;;;;;;18.80;13.57;;;23.90;98.20;;;;;;5410622;26;20438;-79
2024/05/01 11:33:09;;;;;;;16.37;13.50;;;23.90;98.30;;;;;;5446361;26;20248;-80
2024/05/01 11:35:34;;;;;;;17.13;14.00;;;24.00;98.20;;;;;;5410723;26;20249;-81
2024/05/01 11:38:00;;;;;;;15.40;11.83;;;24.10;98.00;;;;;;5438321;26;20245;-81
2024/05/01 11:40:26;;;;;;;21.80;13.13;;;24.30;98.00;;;;;;5444915;26;20861;-81
2024/05/01 11:42:51;;;;;;;15.57;11.23;;;24.30;98.10;;;;;;5447798;26;20747;-83
2024/05/01 11:45:17;;;;;;;13.93;12.40;;;24.30;98.20;;;;;;5419516;26;20257;-82
2024/05/01 11:47:43;;;;;;;17.23;11.90;;;24.50;98.00;;;;;;5444324;26;20633;-81
2024/05/01 11:50:08;;;;;;;17.00;12.10;;;24.50;98.20;;;;;;5412931;26;20661;-82
2024/05/01 11:52:34;;;;;;;15.53;11.43;;;24.50;97.80;;;;;;5445156;26;20241;-81
2024/05/01 11:54:59;;;;;;;13.57;10.40;;;24.50;97.70;;;;;;5447324;26;20700;-81
2024/05/01 11:57:25;;;;;;;14.37;9.97;;;24.60;97.20;;;;;;5448140;26;20240;-82
2024/05/01 11:59:50;;;;;;;18.53;10.63;;;24.80;96.80;;;;;;5445694;26;20345;-82
2024/05/01 12:02:42;;;;;;;12.27;10.83;;;24.90;96.60;;;;;;5411364;26;20357;-81
2024/05/01 12:05:08;;;;;;;15.40;10.83;;;24.90;96.90;;;;;;5404417;26;20870;-82
2024/05/01 12:07:33;;;;;;;14.57;11.20;;;25.10;96.80;;;;;;5446470;26;20283;-81
2024/05/01 12:09:59;;;;;;;16.70;12.60;;;25.00;97.00;;;;;;5429850;26;20245;-81
2024/05/01 12:12:25;;;;;;;18.00;11.87;;;25.00;97.00;;;;;;5409464;26;20411;-81
2024/05/01 12:14:50;;;;;;;13.23;11.07;;;25.10;96.70;;;;;;5441852;26;20244;-81
2024/05/01 12:17:16;;;;;;;15.63;9.87;;;25.20;96.80;;;;;;5448078;26;20278;-81
2024/05/01 12:19:42;;;;;;;19.70;10.50;;;25.20;96.50;;;;;;5443926;26;20274;-82
2024/05/01 12:22:07;;;;;;;18.70;10.07;;;25.20;96.20;;;;;;5447739;26;20236;-80
2024/05/01 12:24:33;;;;;;;14.33;10.03;;;25.30;96.10;;;;;;5447865;26;20232;-79